createdAt,value
2023-05-05T00:01:00.996Z,4.77
2023-05-05T00:03:28.100Z,4.70
2023-05-05T00:05:55.438Z,4.90
2023-05-05T00:08:22.860Z,4.57
2023-05-05T00:10:51.431Z,5.17
2023-05-05T00:13:19.598Z,4.30
2023-05-05T00:15:47.876Z,4.87
2023-05-05T00:18:16.587Z,4.73
2023-05-05T00:20:44.255Z,4.73
2023-05-05T00:23:11.071Z,6.03
2023-05-05T00:25:37.898Z,5.47
2023-05-05T00:28:04.817Z,5.50
2023-05-05T00:30:31.807Z,4.90
2023-05-05T00:32:58.562Z,4.53
2023-05-05T00:35:25.464Z,5.80
2023-05-05T00:37:52.271Z,5.43
2023-05-05T00:40:19.198Z,5.17
2023-05-05T00:42:47.671Z,6.70
2023-05-05T00:45:15.748Z,5.93
2023-05-05T00:47:45.245Z,4.80
2023-05-05T00:50:20.530Z,4.97
2023-05-05T00:52:47.427Z,4.87
2023-05-05T00:55:14.194Z,5.43
2023-05-05T00:57:41.172Z,5.00
2023-05-05T01:00:10.030Z,5.67
2023-05-05T01:02:37.142Z,5.20
2023-05-05T01:05:04.922Z,5.30
2023-05-05T01:07:55.439Z,5.33
2023-05-05T01:10:46.613Z,4.47
2023-05-05T01:13:48.192Z,3.93
2023-05-05T01:16:23.608Z,4.10
2023-05-05T01:19:10.337Z,4.60
2023-05-05T01:21:56.219Z,4.77
2023-05-05T01:24:26.028Z,4.80
2023-05-05T01:26:55.486Z,4.80
2023-05-05T01:29:41.207Z,3.60
2023-05-05T01:32:14.968Z,4.23
2023-05-05T01:35:00.996Z,4.40
2023-05-05T01:37:38.286Z,4.80
2023-05-05T01:40:08.208Z,3.87
2023-05-05T01:42:37.999Z,4.30
2023-05-05T01:45:08.149Z,4.73
2023-05-05T01:47:38.019Z,4.00
2023-05-05T01:50:06.590Z,4.37
2023-05-05T01:52:35.787Z,4.73
2023-05-05T01:55:03.550Z,4.83
2023-05-05T01:57:33.087Z,4.97
2023-05-05T02:00:02.091Z,4.67
2023-05-05T02:02:30.407Z,4.27
2023-05-05T02:04:58.939Z,4.27
2023-05-05T02:07:27.407Z,3.90
2023-05-05T02:09:55.549Z,4.40
2023-05-05T02:12:23.852Z,4.40
2023-05-05T02:14:52.254Z,3.90
2023-05-05T02:17:20.598Z,3.97
2023-05-05T02:19:49.909Z,4.23
2023-05-05T02:22:16.905Z,4.67
2023-05-05T02:24:44.293Z,4.30
2023-05-05T02:27:12.039Z,4.10
2023-05-05T02:30:04.720Z,4.23
2023-05-05T02:32:37.649Z,3.90
2023-05-05T02:35:28.323Z,4.70
2023-05-05T02:38:02.838Z,4.13
2023-05-05T02:40:34.072Z,5.13
2023-05-05T02:43:06.272Z,4.30
2023-05-05T02:45:33.471Z,4.40
2023-05-05T02:48:07.028Z,4.07
2023-05-05T02:50:33.969Z,5.70
2023-05-05T02:53:01.124Z,4.30
2023-05-05T02:55:39.174Z,4.70
2023-05-05T02:58:09.319Z,4.50
2023-05-05T03:00:50.475Z,5.93
2023-05-05T03:03:30.725Z,6.60
2023-05-05T03:06:02.356Z,4.20
2023-05-05T03:08:44.048Z,4.67
2023-05-05T03:11:27.777Z,4.90
2023-05-05T03:14:08.962Z,5.17
2023-05-05T03:16:38.123Z,4.13
2023-05-05T03:19:06.977Z,5.07
2023-05-05T03:21:33.937Z,4.90
2023-05-05T03:24:01.117Z,5.50
2023-05-05T03:26:27.870Z,4.47
2023-05-05T03:28:54.595Z,3.90
2023-05-05T03:31:21.434Z,4.87
2023-05-05T03:33:48.278Z,5.70
2023-05-05T03:36:15.108Z,4.10
2023-05-05T03:38:41.869Z,4.87
2023-05-05T03:41:08.551Z,4.70
2023-05-05T03:43:35.503Z,4.27
2023-05-05T03:46:02.280Z,4.60
2023-05-05T03:48:29.047Z,5.30
2023-05-05T03:50:55.777Z,4.57
2023-05-05T03:53:22.679Z,4.53
2023-05-05T03:55:49.505Z,4.90
2023-05-05T03:58:16.648Z,5.20
2023-05-05T04:00:43.653Z,4.73
2023-05-05T04:03:11.100Z,5.27
2023-05-05T04:05:38.071Z,4.57
2023-05-05T04:08:05.067Z,4.70
2023-05-05T04:10:32.167Z,5.60
2023-05-05T04:12:58.985Z,4.40
2023-05-05T04:15:25.772Z,4.97
2023-05-05T04:17:52.754Z,4.53
2023-05-05T04:20:19.630Z,5.00
2023-05-05T04:22:46.449Z,5.07
2023-05-05T04:25:13.399Z,4.50
2023-05-05T04:27:40.227Z,5.20
2023-05-05T04:30:07.935Z,6.30
2023-05-05T04:32:35.322Z,4.87
2023-05-05T04:35:02.067Z,4.97
2023-05-05T04:37:28.793Z,4.93
2023-05-05T04:39:55.567Z,5.27
2023-05-05T04:42:22.313Z,4.97
2023-05-05T04:44:49.009Z,5.53
2023-05-05T04:47:15.747Z,5.40
2023-05-05T04:49:42.502Z,4.90
2023-05-05T04:52:09.243Z,5.33
2023-05-05T04:54:37.007Z,5.27
2023-05-05T04:57:04.150Z,4.93
2023-05-05T04:59:30.955Z,5.37
2023-05-05T05:01:57.667Z,5.73
2023-05-05T05:04:25.875Z,5.63
2023-05-05T05:06:52.738Z,6.47
2023-05-05T05:09:19.462Z,6.07
2023-05-05T05:11:46.176Z,5.90
2023-05-05T05:14:12.957Z,6.07
2023-05-05T05:16:39.696Z,6.40
2023-05-05T05:19:06.554Z,6.30
2023-05-05T05:21:33.309Z,5.63
2023-05-05T05:24:00.017Z,5.80
2023-05-05T05:26:27.519Z,6.80
2023-05-05T05:28:54.869Z,6.20
2023-05-05T05:31:21.626Z,5.73
2023-05-05T05:33:48.362Z,5.33
2023-05-05T05:36:15.292Z,5.40
2023-05-05T05:38:42.018Z,5.77
2023-05-05T05:41:08.704Z,6.57
2023-05-05T05:43:35.509Z,5.97
2023-05-05T05:46:02.253Z,6.20
2023-05-05T05:48:29.411Z,6.20
2023-05-05T05:50:56.878Z,5.90
2023-05-05T05:53:23.679Z,6.50
2023-05-05T05:55:50.529Z,5.97
2023-05-05T05:58:18.469Z,6.00
2023-05-05T06:00:45.367Z,5.53
2023-05-05T06:03:12.479Z,6.43
2023-05-05T06:05:39.601Z,5.40
2023-05-05T06:08:06.446Z,6.07
2023-05-05T06:10:33.496Z,6.47
2023-05-05T06:13:00.680Z,6.23
2023-05-05T06:15:27.397Z,5.60
2023-05-05T06:17:54.160Z,5.80
2023-05-05T06:20:20.934Z,6.50
2023-05-05T06:22:47.739Z,6.70
2023-05-05T06:25:14.550Z,5.90
2023-05-05T06:27:41.262Z,6.20
2023-05-05T06:30:09.640Z,5.90
2023-05-05T06:32:36.642Z,6.37
2023-05-05T06:35:03.579Z,6.37
2023-05-05T06:37:30.331Z,6.23
2023-05-05T06:39:57.046Z,5.73
2023-05-05T06:42:23.825Z,6.40
2023-05-05T06:44:50.845Z,5.20
2023-05-05T06:47:17.566Z,6.07
2023-05-05T06:49:44.342Z,5.53
2023-05-05T06:52:11.348Z,5.57
2023-05-05T06:54:38.157Z,5.30
2023-05-05T06:57:04.942Z,5.40
2023-05-05T06:59:32.456Z,5.13
2023-05-05T07:01:59.547Z,6.07
2023-05-05T07:04:26.858Z,5.20
2023-05-05T07:06:55.175Z,5.13
2023-05-05T07:09:22.014Z,5.37
2023-05-05T07:11:48.748Z,5.50
2023-05-05T07:14:15.511Z,5.60
2023-05-05T07:16:42.312Z,5.27
2023-05-05T07:19:09.113Z,5.27
2023-05-05T07:21:36.491Z,5.93
2023-05-05T07:24:03.893Z,5.50
2023-05-05T07:26:30.827Z,5.13
2023-05-05T07:28:58.924Z,5.67
2023-05-05T07:31:26.459Z,4.73
2023-05-05T07:33:53.647Z,6.67
2023-05-05T07:36:20.698Z,5.10
2023-05-05T07:38:47.447Z,4.90
2023-05-05T07:41:14.284Z,5.40
2023-05-05T07:43:44.234Z,5.57
2023-05-05T07:46:11.687Z,4.93
2023-05-05T07:48:41.654Z,5.07
2023-05-05T07:51:09.249Z,5.57
2023-05-05T07:53:36.316Z,5.57
2023-05-05T07:56:03.708Z,5.13
2023-05-05T07:58:30.675Z,5.20
2023-05-05T08:00:57.492Z,4.90
2023-05-05T08:03:24.923Z,4.93
2023-05-05T08:05:54.306Z,4.70
2023-05-05T08:08:24.524Z,4.97
2023-05-05T08:10:55.513Z,5.60
2023-05-05T08:13:22.264Z,4.80
2023-05-05T08:15:49.072Z,5.33
2023-05-05T08:18:15.929Z,5.37
2023-05-05T08:20:42.800Z,5.00
2023-05-05T08:23:09.461Z,5.20
2023-05-05T08:25:36.278Z,4.30
2023-05-05T08:28:03.009Z,5.07
2023-05-05T08:30:30.275Z,5.10
2023-05-05T08:32:57.131Z,4.70
2023-05-05T08:35:24.580Z,5.00
2023-05-05T08:37:51.874Z,4.50
2023-05-05T08:40:24.988Z,5.13
2023-05-05T08:42:51.693Z,5.57
2023-05-05T08:45:18.422Z,5.23
2023-05-05T08:47:45.509Z,5.70
2023-05-05T08:50:12.577Z,5.43
2023-05-05T08:52:45.111Z,5.67
2023-05-05T08:55:26.669Z,4.73
2023-05-05T08:58:01.006Z,4.87
2023-05-05T09:00:28.249Z,6.10
2023-05-05T09:02:58.208Z,4.53
2023-05-05T09:05:26.096Z,5.13
2023-05-05T09:07:53.281Z,6.30
2023-05-05T09:10:20.249Z,5.63
2023-05-05T09:12:47.397Z,5.20
2023-05-05T09:15:15.443Z,5.30
2023-05-05T09:17:42.631Z,5.20
2023-05-05T09:20:14.775Z,4.87
2023-05-05T09:22:44.756Z,5.10
2023-05-05T09:25:13.427Z,5.17
2023-05-05T09:27:48.486Z,5.20
2023-05-05T09:30:26.918Z,5.23
2023-05-05T09:32:55.893Z,5.27
2023-05-05T09:35:23.320Z,5.00
2023-05-05T09:37:50.208Z,4.83
2023-05-05T09:40:19.229Z,4.90
2023-05-05T09:42:46.247Z,4.50
2023-05-05T09:45:19.309Z,4.60
2023-05-05T09:47:47.393Z,5.10
2023-05-05T09:50:16.278Z,5.23
2023-05-05T09:52:43.360Z,4.30
2023-05-05T09:55:19.284Z,4.73
2023-05-05T09:57:47.347Z,4.37
2023-05-05T10:00:14.703Z,4.10
2023-05-05T10:02:42.053Z,4.57
2023-05-05T10:05:11.033Z,4.40
2023-05-05T10:07:38.928Z,4.67
2023-05-05T10:10:08.411Z,5.30
2023-05-05T10:12:37.008Z,5.37
2023-05-05T10:15:05.663Z,4.40
2023-05-05T10:17:36.077Z,4.80
2023-05-05T10:20:03.985Z,4.40
2023-05-05T10:22:35.310Z,4.40
2023-05-05T10:25:14.144Z,3.77
2023-05-05T10:27:46.335Z,4.60
2023-05-05T10:30:20.550Z,4.40
2023-05-05T10:33:07.951Z,4.17
2023-05-05T10:35:43.876Z,5.17
2023-05-05T10:38:12.715Z,4.93
2023-05-05T10:40:46.425Z,5.00
2023-05-05T10:43:15.185Z,4.00
2023-05-05T10:45:42.715Z,4.33
2023-05-05T10:48:18.855Z,4.70
2023-05-05T10:50:53.632Z,3.90
2023-05-05T10:53:28.782Z,5.53
2023-05-05T10:56:19.107Z,4.53
2023-05-05T10:58:59.074Z,4.10
2023-05-05T11:01:33.243Z,3.87
2023-05-05T11:04:20.262Z,4.53
2023-05-05T11:07:27.397Z,4.77
2023-05-05T11:09:58.791Z,4.50
2023-05-05T11:12:25.710Z,4.07
2023-05-05T11:15:27.869Z,3.90
2023-05-05T11:17:55.716Z,4.27
2023-05-05T11:20:39.714Z,4.03
2023-05-05T11:23:06.897Z,3.93
2023-05-05T11:25:37.541Z,3.80
2023-05-05T11:28:10.164Z,4.20
2023-05-05T11:30:57.837Z,4.20
2023-05-05T11:33:36.964Z,4.17
2023-05-05T11:36:06.765Z,4.10
2023-05-05T11:39:24.775Z,4.17
2023-05-05T11:42:14.492Z,3.90
2023-05-05T11:44:41.635Z,4.10
2023-05-05T11:47:08.289Z,4.30
2023-05-05T11:49:37.654Z,4.00
2023-05-05T11:52:14.935Z,4.40
2023-05-05T11:54:47.746Z,3.77
2023-05-05T11:57:17.222Z,3.50
2023-05-05T12:00:00.152Z,4.10
2023-05-05T12:02:28.332Z,3.40
2023-05-05T12:04:56.342Z,4.20
2023-05-05T12:07:31.619Z,3.60
2023-05-05T12:09:58.879Z,3.83
2023-05-05T12:12:39.911Z,3.53
2023-05-05T12:15:07.930Z,4.83
2023-05-05T12:17:44.850Z,4.13
2023-05-05T12:20:12.833Z,3.80
2023-05-05T12:22:40.237Z,4.00
2023-05-05T12:25:08.234Z,4.00
2023-05-05T12:27:35.557Z,3.83
2023-05-05T12:30:14.862Z,5.20
2023-05-05T12:32:42.250Z,4.10
2023-05-05T12:35:10.177Z,3.77
2023-05-05T12:37:37.927Z,4.10
2023-05-05T12:40:06.504Z,3.83
2023-05-05T12:42:38.954Z,3.93
2023-05-05T12:45:07.144Z,3.80
2023-05-05T12:47:34.999Z,3.80
2023-05-05T12:50:03.252Z,3.53
2023-05-05T12:52:44.701Z,4.10
2023-05-05T12:55:12.204Z,3.30
2023-05-05T12:57:57.986Z,3.73
2023-05-05T13:00:25.435Z,3.27
2023-05-05T13:02:53.037Z,3.80
2023-05-05T13:05:33.186Z,4.00
2023-05-05T13:08:00.210Z,3.20
2023-05-05T13:10:28.044Z,3.07
2023-05-05T13:12:58.440Z,4.10
2023-05-05T13:15:25.934Z,4.10
2023-05-05T13:18:02.679Z,3.70
2023-05-05T13:20:29.675Z,3.40
2023-05-05T13:22:57.297Z,3.67
2023-05-05T13:25:24.304Z,3.27
2023-05-05T13:27:51.099Z,3.27
2023-05-05T13:30:17.835Z,3.53
2023-05-05T13:32:44.609Z,2.87
2023-05-05T13:35:13.187Z,2.83
2023-05-05T13:37:42.472Z,3.27
2023-05-05T13:40:10.123Z,2.97
2023-05-05T13:42:36.839Z,3.43
2023-05-05T13:45:03.919Z,2.97
2023-05-05T13:47:30.816Z,3.10
2023-05-05T13:49:57.591Z,3.43
2023-05-05T13:52:24.265Z,3.90
2023-05-05T13:54:51.878Z,3.70
2023-05-05T13:57:18.595Z,2.93
2023-05-05T13:59:45.330Z,3.10
2023-05-05T14:02:12.089Z,3.30
2023-05-05T14:04:38.833Z,3.07
2023-05-05T14:07:05.585Z,3.30
2023-05-05T14:09:32.467Z,3.07
2023-05-05T14:11:59.266Z,2.87
2023-05-05T14:14:26.019Z,3.00
2023-05-05T14:16:52.749Z,3.20
2023-05-05T14:19:19.635Z,2.93
2023-05-05T14:21:46.318Z,3.10
2023-05-05T14:24:13.053Z,3.03
2023-05-05T14:26:39.810Z,3.10
2023-05-05T14:29:06.601Z,3.07
2023-05-05T14:31:33.466Z,2.87
2023-05-05T14:34:00.363Z,3.20
2023-05-05T14:36:27.061Z,3.40
2023-05-05T14:38:53.872Z,3.20
2023-05-05T14:41:20.650Z,3.30
2023-05-05T14:43:47.413Z,3.27
2023-05-05T14:46:14.198Z,3.20
2023-05-05T14:48:41.121Z,5.70
2023-05-05T14:51:07.848Z,3.30
2023-05-05T14:53:34.872Z,3.40
2023-05-05T14:56:02.341Z,3.00
2023-05-05T14:58:29.131Z,3.83
2023-05-05T15:00:55.935Z,2.90
2023-05-05T15:03:22.737Z,3.33
2023-05-05T15:05:49.628Z,3.27
2023-05-05T15:08:18.681Z,3.63
2023-05-05T15:10:48.428Z,3.30
2023-05-05T15:13:15.376Z,3.23
2023-05-05T15:15:42.254Z,3.10
2023-05-05T15:18:09.033Z,2.93
2023-05-05T15:20:35.799Z,3.00
2023-05-05T15:23:02.574Z,2.80
2023-05-05T15:25:29.395Z,2.80
2023-05-05T15:27:56.537Z,3.70
2023-05-05T15:30:23.236Z,3.23
2023-05-05T15:32:50.030Z,3.70
2023-05-05T15:35:17.000Z,3.50
2023-05-05T15:37:43.747Z,3.90
2023-05-05T15:40:10.958Z,3.90
2023-05-05T15:42:37.790Z,3.10
2023-05-05T15:45:05.454Z,3.27
2023-05-05T15:47:32.342Z,3.47
2023-05-05T15:49:59.083Z,3.10
2023-05-05T15:52:25.805Z,3.50
2023-05-05T15:54:52.508Z,2.80
2023-05-05T15:57:19.340Z,3.33
2023-05-05T15:59:46.178Z,3.53
2023-05-05T16:02:13.008Z,3.87
2023-05-05T16:04:39.739Z,3.47
2023-05-05T16:07:06.445Z,3.67
2023-05-05T16:09:33.251Z,3.23
2023-05-05T16:11:59.990Z,4.13
2023-05-05T16:14:27.874Z,3.40
2023-05-05T16:16:55.484Z,3.27
2023-05-05T16:19:23.354Z,4.30
2023-05-05T16:21:50.050Z,3.63
2023-05-05T16:24:17.063Z,5.20
2023-05-05T16:26:44.513Z,3.80
2023-05-05T16:29:12.220Z,3.70
2023-05-05T16:31:39.438Z,3.40
2023-05-05T16:34:06.506Z,3.53
2023-05-05T16:36:33.249Z,4.13
2023-05-05T16:39:00.020Z,3.80
2023-05-05T16:41:27.086Z,4.10
2023-05-05T16:43:53.904Z,3.90
2023-05-05T16:46:20.636Z,3.63
2023-05-05T16:48:47.440Z,3.93
2023-05-05T16:51:14.127Z,3.80
2023-05-05T16:53:41.044Z,3.40
2023-05-05T16:56:10.970Z,3.83
2023-05-05T16:58:37.701Z,4.47
2023-05-05T17:01:04.468Z,3.60
2023-05-05T17:03:31.217Z,3.40
2023-05-05T17:05:58.279Z,3.50
2023-05-05T17:08:25.066Z,3.40
2023-05-05T17:10:51.803Z,3.90
2023-05-05T17:13:19.101Z,4.33
2023-05-05T17:15:46.037Z,4.20
2023-05-05T17:18:12.794Z,4.30
2023-05-05T17:20:39.561Z,4.70
2023-05-05T17:23:08.466Z,4.00
2023-05-05T17:25:35.914Z,4.17
2023-05-05T17:28:02.790Z,3.80
2023-05-05T17:30:29.522Z,4.97
2023-05-05T17:32:56.883Z,4.30
2023-05-05T17:35:23.732Z,3.93
2023-05-05T17:37:50.513Z,3.57
2023-05-05T17:40:17.227Z,3.53
2023-05-05T17:42:43.944Z,3.90
2023-05-05T17:45:11.363Z,3.90
2023-05-05T17:47:38.530Z,3.30
2023-05-05T17:50:05.917Z,3.77
2023-05-05T17:52:32.663Z,3.70
2023-05-05T17:54:59.348Z,4.30
2023-05-05T17:57:26.103Z,3.90
2023-05-05T17:59:53.592Z,4.00
2023-05-05T18:02:20.715Z,4.33
2023-05-05T18:04:47.686Z,4.33
2023-05-05T18:07:14.887Z,4.03
2023-05-05T18:09:42.484Z,4.57
2023-05-05T18:12:09.529Z,4.33
2023-05-05T18:14:36.643Z,4.87
2023-05-05T18:17:04.705Z,4.20
2023-05-05T18:19:31.659Z,4.17
2023-05-05T18:21:59.087Z,4.43
2023-05-05T18:24:26.187Z,4.30
2023-05-05T18:26:53.111Z,4.40
2023-05-05T18:29:21.722Z,4.40
2023-05-05T18:31:51.478Z,4.27
2023-05-05T18:34:19.026Z,4.40
2023-05-05T18:36:46.433Z,4.60
2023-05-05T18:39:13.868Z,4.70
2023-05-05T18:41:41.106Z,4.80
2023-05-05T18:44:08.029Z,5.33
2023-05-05T18:46:34.946Z,5.10
2023-05-05T18:49:01.820Z,5.07
2023-05-05T18:51:28.664Z,5.33
2023-05-05T18:53:55.600Z,4.87
2023-05-05T18:56:22.348Z,4.83
2023-05-05T18:58:49.137Z,5.50
2023-05-05T19:01:16.338Z,5.80
2023-05-05T19:03:48.033Z,5.07
2023-05-05T19:06:15.470Z,5.43
2023-05-05T19:08:42.908Z,4.43
2023-05-05T19:11:09.878Z,5.70
2023-05-05T19:16:08.359Z,5.30
2023-05-05T19:18:35.094Z,5.30
2023-05-05T19:21:02.267Z,6.10
2023-05-05T19:23:29.038Z,5.37
2023-05-05T19:25:55.827Z,5.30
2023-05-05T19:28:22.591Z,5.37
2023-05-05T19:30:49.358Z,5.20
2023-05-05T19:33:16.400Z,5.30
2023-05-05T19:35:43.888Z,5.50
2023-05-05T19:38:10.813Z,5.60
2023-05-05T19:40:38.601Z,5.23
2023-05-05T19:43:05.589Z,5.07
2023-05-05T19:45:33.694Z,5.50
2023-05-05T19:48:01.523Z,5.83
2023-05-05T19:50:30.195Z,5.83
2023-05-05T19:52:57.195Z,4.97
2023-05-05T19:55:24.406Z,5.10
2023-05-05T19:57:51.213Z,5.30
2023-05-05T20:00:19.535Z,4.77
2023-05-05T20:02:46.445Z,5.00
2023-05-05T20:05:14.905Z,5.70
2023-05-05T20:07:42.033Z,5.10
2023-05-05T20:10:10.581Z,5.17
2023-05-05T20:12:37.548Z,5.20
2023-05-05T20:15:04.612Z,4.70
2023-05-05T20:17:31.356Z,4.93
2023-05-05T20:19:58.093Z,5.57
2023-05-05T20:22:26.460Z,5.07
2023-05-05T20:24:53.423Z,6.90
2023-05-05T20:27:21.501Z,5.10
2023-05-05T20:29:48.188Z,6.20
2023-05-05T20:32:15.643Z,4.97
2023-05-05T20:34:42.395Z,5.83
2023-05-05T20:37:10.074Z,5.13
2023-05-05T20:39:38.018Z,5.37
2023-05-05T20:42:04.782Z,5.60
2023-05-05T20:44:31.611Z,5.37
2023-05-05T20:46:58.385Z,5.13
2023-05-05T20:49:25.274Z,5.60
2023-05-05T20:51:51.963Z,4.30
2023-05-05T20:54:18.670Z,5.17
2023-05-05T20:56:45.508Z,5.37
2023-05-05T20:59:12.200Z,4.83
2023-05-05T21:01:39.060Z,4.90
2023-05-05T21:04:06.029Z,4.70
2023-05-05T21:06:32.733Z,5.17
2023-05-05T21:08:59.476Z,4.93
2023-05-05T21:11:26.154Z,4.40
2023-05-05T21:13:52.846Z,4.40
2023-05-05T21:16:19.586Z,5.60
2023-05-05T21:18:47.273Z,4.43
2023-05-05T21:21:14.047Z,5.27
2023-05-05T21:23:40.800Z,5.30
2023-05-05T21:26:07.474Z,5.50
2023-05-05T21:28:34.192Z,5.53
2023-05-05T21:31:20.515Z,5.20
2023-05-05T21:33:47.553Z,4.70
2023-05-05T21:36:19.011Z,4.97
2023-05-05T21:38:45.932Z,5.07
2023-05-05T21:41:12.749Z,4.67
2023-05-05T21:43:39.459Z,5.67
2023-05-05T21:46:06.216Z,5.27
2023-05-05T21:48:33.125Z,6.77
2023-05-05T21:51:00.068Z,6.07
2023-05-05T21:53:26.781Z,5.83
2023-05-05T21:55:53.444Z,5.73
2023-05-05T21:58:20.241Z,6.00
2023-05-05T22:00:49.756Z,5.87
2023-05-05T22:03:17.038Z,6.60
2023-05-05T22:05:43.926Z,5.53
2023-05-05T22:08:11.243Z,5.60
2023-05-05T22:10:39.172Z,5.80
2023-05-05T22:13:06.034Z,6.70
2023-05-05T22:15:42.611Z,6.40
2023-05-05T22:18:13.179Z,6.23
2023-05-05T22:20:40.604Z,6.10
2023-05-05T22:23:07.383Z,6.70
2023-05-05T22:25:34.105Z,6.30
2023-05-05T22:28:00.942Z,6.10
2023-05-05T22:30:27.663Z,6.23
2023-05-05T22:32:54.997Z,5.73
2023-05-05T22:35:21.894Z,6.10
2023-05-05T22:37:48.671Z,5.53
2023-05-05T22:40:15.477Z,6.23
2023-05-05T22:42:42.242Z,6.50
2023-05-05T22:45:09.947Z,7.13
2023-05-05T22:47:37.131Z,6.50
2023-05-05T22:50:03.965Z,6.07
2023-05-05T22:52:30.797Z,6.93
2023-05-05T22:54:57.610Z,6.37
2023-05-05T22:57:24.483Z,7.20
2023-05-05T22:59:51.519Z,7.47
2023-05-05T23:02:18.245Z,7.37
2023-05-05T23:04:45.197Z,8.80
2023-05-05T23:07:12.552Z,9.00
2023-05-05T23:09:39.438Z,8.37
2023-05-05T23:12:06.343Z,8.10
2023-05-05T23:14:33.080Z,8.10
2023-05-05T23:16:59.974Z,7.90
2023-05-05T23:19:28.940Z,9.03
2023-05-05T23:21:55.776Z,8.20
2023-05-05T23:24:22.518Z,9.33
2023-05-05T23:26:49.309Z,8.60
2023-05-05T23:29:16.017Z,10.03
2023-05-05T23:31:42.683Z,10.33
2023-05-05T23:34:09.513Z,9.87
2023-05-05T23:36:36.219Z,9.60
2023-05-05T23:39:02.996Z,9.90
2023-05-05T23:41:29.882Z,9.43
2023-05-05T23:43:56.860Z,9.63
2023-05-05T23:46:24.007Z,10.37
2023-05-05T23:48:51.169Z,9.80
2023-05-05T23:51:17.955Z,8.97
2023-05-05T23:53:44.688Z,9.63
2023-05-05T23:56:11.802Z,9.17
2023-05-05T23:58:38.770Z,9.67
